createdAt,value
2019-01-25T00:00:13.618Z,39.94
2019-01-25T00:02:42.005Z,39.97
2019-01-25T00:05:10.826Z,39.80
2019-01-25T00:07:39.211Z,39.85
2019-01-25T00:10:10.958Z,39.95
2019-01-25T00:12:39.360Z,39.82
2019-01-25T00:15:10.692Z,39.87
2019-01-25T00:17:39.072Z,39.87
2019-01-25T00:20:12.408Z,40.00
2019-01-25T00:22:40.802Z,39.89
2019-01-25T00:25:09.645Z,39.82
2019-01-25T00:27:38.029Z,39.97
2019-01-25T00:30:15.077Z,39.94
2019-01-25T00:32:43.460Z,39.85
2019-01-25T00:35:12.300Z,39.93
2019-01-25T00:37:40.754Z,39.91
2019-01-25T00:40:12.329Z,39.91
2019-01-25T00:42:40.703Z,39.96
2019-01-25T00:45:10.634Z,39.78
2019-01-25T00:47:39.083Z,39.96
2019-01-25T00:50:10.534Z,39.96
2019-01-25T00:52:38.919Z,39.92
2019-01-25T00:55:08.946Z,39.92
2019-01-25T00:57:37.512Z,40.01
2019-01-25T01:00:14.752Z,40.00
2019-01-25T01:02:43.140Z,39.95
2019-01-25T01:05:12.059Z,40.05
2019-01-25T01:07:40.455Z,40.06
2019-01-25T01:10:14.170Z,39.88
2019-01-25T01:12:41.412Z,39.75
2019-01-25T01:15:12.835Z,39.96
2019-01-25T01:17:41.402Z,40.11
2019-01-25T01:20:15.040Z,40.00
2019-01-25T01:22:43.503Z,39.93
2019-01-25T01:25:13.329Z,40.00
2019-01-25T01:27:41.792Z,40.06
2019-01-25T01:30:13.243Z,39.86
2019-01-25T01:32:41.638Z,40.22
2019-01-25T01:35:10.342Z,39.92
2019-01-25T01:37:38.728Z,39.73
2019-01-25T01:40:22.002Z,39.88
2019-01-25T01:42:49.247Z,39.71
2019-01-25T01:45:18.268Z,39.79
2019-01-25T01:47:46.724Z,39.75
2019-01-25T01:50:16.845Z,39.75
2019-01-25T01:52:45.473Z,39.92
2019-01-25T01:55:13.988Z,39.77
2019-01-25T01:57:42.371Z,39.77
2019-01-25T02:00:16.620Z,39.74
2019-01-25T02:02:45.183Z,39.65
2019-01-25T02:05:13.922Z,39.76
2019-01-25T02:07:42.329Z,39.77
2019-01-25T02:10:14.473Z,39.67
2019-01-25T02:12:42.874Z,39.66
2019-01-25T02:15:14.307Z,39.54
2019-01-25T02:17:42.972Z,39.70
2019-01-25T02:20:14.760Z,39.60
2019-01-25T02:22:43.168Z,39.79
2019-01-25T02:25:11.564Z,39.59
2019-01-25T02:27:39.967Z,39.62
2019-01-25T02:30:17.366Z,39.62
2019-01-25T02:32:45.770Z,39.50
2019-01-25T02:35:14.250Z,39.41
2019-01-25T02:37:42.641Z,39.60
2019-01-25T02:40:14.264Z,39.47
2019-01-25T02:42:42.659Z,39.44
2019-01-25T02:45:12.670Z,39.79
2019-01-25T02:47:41.233Z,39.51
2019-01-25T02:50:15.052Z,39.52
2019-01-25T02:52:43.446Z,39.58
2019-01-25T02:55:13.070Z,39.51
2019-01-25T02:57:41.463Z,39.49
2019-01-25T03:00:15.345Z,39.55
2019-01-25T03:02:43.738Z,39.47
2019-01-25T03:05:12.760Z,39.43
2019-01-25T03:07:41.151Z,39.43
2019-01-25T03:10:12.822Z,39.46
2019-01-25T03:12:41.282Z,39.35
2019-01-25T03:15:15.457Z,39.37
2019-01-25T03:17:43.853Z,39.30
2019-01-25T03:20:14.377Z,39.37
2019-01-25T03:22:42.771Z,39.31
2019-01-25T03:25:19.694Z,39.41
2019-01-25T03:27:48.080Z,39.38
2019-01-25T03:30:18.906Z,39.30
2019-01-25T03:32:47.392Z,39.32
2019-01-25T03:35:17.688Z,39.40
2019-01-25T03:37:46.149Z,39.43
2019-01-25T03:40:19.623Z,39.35
2019-01-25T03:42:48.176Z,39.24
2019-01-25T03:45:17.019Z,39.44
2019-01-25T03:47:45.473Z,39.41
2019-01-25T03:50:20.093Z,39.39
2019-01-25T03:52:48.488Z,39.41
2019-01-25T03:55:17.111Z,39.12
2019-01-25T03:57:45.511Z,39.28
2019-01-25T04:00:16.945Z,39.20
2019-01-25T04:02:45.418Z,39.35
2019-01-25T04:05:15.541Z,39.21
2019-01-25T04:07:44.078Z,39.15
2019-01-25T04:10:15.663Z,39.27
2019-01-25T04:12:44.106Z,39.31
2019-01-25T04:15:15.724Z,39.32
2019-01-25T04:17:44.122Z,39.31
2019-01-25T04:20:15.059Z,39.42
2019-01-25T04:22:43.456Z,39.44
2019-01-25T04:25:14.576Z,39.33
2019-01-25T04:27:43.043Z,39.16
2019-01-25T04:30:14.527Z,39.32
2019-01-25T04:32:43.018Z,39.33
2019-01-25T04:35:11.473Z,39.36
2019-01-25T04:37:39.873Z,39.25
2019-01-25T04:40:11.489Z,39.35
2019-01-25T04:42:39.955Z,39.36
2019-01-25T04:45:14.437Z,39.26
2019-01-25T04:47:42.891Z,39.43
2019-01-25T04:50:19.158Z,39.38
2019-01-25T04:52:47.524Z,39.25
2019-01-25T04:55:21.197Z,39.29
2019-01-25T04:57:49.979Z,39.28
2019-01-25T05:00:21.053Z,39.09
2019-01-25T05:02:54.246Z,40.08
2019-01-25T05:05:23.003Z,40.30
2019-01-25T05:07:54.615Z,40.54
2019-01-25T05:10:22.995Z,40.44
2019-01-25T05:12:54.338Z,40.57
2019-01-25T05:15:22.791Z,40.50
2019-01-25T05:17:55.149Z,40.35
2019-01-25T05:20:23.603Z,40.21
2019-01-25T05:23:00.341Z,40.22
2019-01-25T05:25:29.190Z,40.27
2019-01-25T05:27:57.594Z,40.27
2019-01-25T05:30:26.551Z,40.33
2019-01-25T05:32:54.946Z,40.03
2019-01-25T05:35:23.338Z,40.27
2019-01-25T05:37:51.732Z,40.65
2019-01-25T05:40:22.658Z,40.72
2019-01-25T05:42:51.039Z,40.71
2019-01-25T05:45:19.492Z,40.71
2019-01-25T05:47:47.871Z,40.86
2019-01-25T05:50:17.407Z,40.87
2019-01-25T05:52:45.857Z,40.80
2019-01-25T05:55:21.975Z,40.92
2019-01-25T05:57:50.534Z,40.84
2019-01-25T06:00:23.339Z,40.69
2019-01-25T06:02:51.788Z,40.87
2019-01-25T06:05:20.184Z,40.81
2019-01-25T06:07:48.585Z,40.80
2019-01-25T06:10:16.972Z,40.82
2019-01-25T06:12:48.505Z,40.83
2019-01-25T06:15:16.903Z,40.83
2019-01-25T06:17:45.287Z,40.92
2019-01-25T06:20:14.035Z,40.93
2019-01-25T06:22:42.408Z,40.93
2019-01-25T06:25:10.882Z,41.00
2019-01-25T06:27:40.230Z,40.86
2019-01-25T06:30:16.864Z,40.93
2019-01-25T06:32:45.321Z,41.05
2019-01-25T06:35:13.726Z,40.91
2019-01-25T06:37:42.117Z,40.93
2019-01-25T06:40:12.350Z,40.96
2019-01-25T06:42:40.736Z,41.03
2019-01-25T06:45:11.069Z,40.94
2019-01-25T06:47:39.523Z,40.97
2019-01-25T06:50:12.275Z,41.09
2019-01-25T06:52:40.658Z,40.83
2019-01-25T06:55:09.803Z,40.79
2019-01-25T06:57:45.611Z,40.69
2019-01-25T07:00:17.788Z,40.65
2019-01-25T07:02:46.175Z,40.90
2019-01-25T07:05:14.577Z,40.84
2019-01-25T07:07:44.528Z,40.85
2019-01-25T07:10:15.969Z,40.88
2019-01-25T07:12:44.359Z,41.23
2019-01-25T07:15:14.829Z,41.24
2019-01-25T07:17:43.220Z,41.01
2019-01-25T07:20:14.056Z,40.90
2019-01-25T07:22:42.433Z,40.90
2019-01-25T07:25:13.070Z,40.94
2019-01-25T07:27:41.452Z,40.80
2019-01-25T07:30:12.901Z,40.71
2019-01-25T07:32:41.448Z,40.72
2019-01-25T07:35:10.693Z,40.74
2019-01-25T07:37:39.144Z,40.66
2019-01-25T07:40:08.890Z,40.60
2019-01-25T07:42:37.267Z,40.64
2019-01-25T07:45:11.542Z,40.78
2019-01-25T07:47:39.977Z,40.61
2019-01-25T07:50:10.495Z,40.60
2019-01-25T07:52:39.055Z,40.48
2019-01-25T07:55:09.693Z,40.63
2019-01-25T07:57:38.087Z,41.15
2019-01-25T08:00:12.873Z,41.64
2019-01-25T08:02:41.259Z,41.31
2019-01-25T08:05:10.721Z,41.45
2019-01-25T08:07:39.317Z,41.79
2019-01-25T08:10:10.774Z,41.92
2019-01-25T08:12:39.235Z,42.26
2019-01-25T08:15:10.679Z,42.08
2019-01-25T08:17:39.057Z,42.13
2019-01-25T08:20:10.481Z,41.99
2019-01-25T08:22:38.855Z,41.83
2019-01-25T08:25:08.866Z,42.04
2019-01-25T08:27:37.247Z,41.91
2019-01-25T08:30:22.611Z,42.08
2019-01-25T08:32:51.373Z,41.73
2019-01-25T08:35:20.879Z,41.78
2019-01-25T08:37:49.308Z,41.47
2019-01-25T08:40:18.462Z,41.55
2019-01-25T08:42:46.842Z,41.27
2019-01-25T08:45:16.882Z,41.42
2019-01-25T08:47:45.268Z,41.36
2019-01-25T08:50:19.073Z,41.41
2019-01-25T08:52:47.580Z,41.33
2019-01-25T08:55:16.197Z,41.50
2019-01-25T08:57:44.652Z,40.97
2019-01-25T09:00:15.964Z,41.36
2019-01-25T09:02:44.354Z,41.50
2019-01-25T09:05:13.388Z,41.25
2019-01-25T09:07:41.840Z,41.77
2019-01-25T09:10:15.590Z,42.26
2019-01-25T09:12:43.978Z,42.21
2019-01-25T09:15:15.382Z,42.10
2019-01-25T09:17:43.764Z,42.18
2019-01-25T09:20:15.608Z,42.28
2019-01-25T09:22:43.986Z,42.47
2019-01-25T09:25:12.625Z,42.38
2019-01-25T09:27:41.018Z,42.54
2019-01-25T09:30:18.224Z,42.59
2019-01-25T09:32:46.686Z,42.68
2019-01-25T09:35:15.623Z,42.91
2019-01-25T09:37:44.072Z,42.71
2019-01-25T09:40:18.187Z,42.78
2019-01-25T09:42:46.587Z,43.99
2019-01-25T09:45:15.219Z,43.53
2019-01-25T09:47:43.599Z,43.89
2019-01-25T09:50:15.078Z,43.78
2019-01-25T09:52:43.469Z,43.69
2019-01-25T09:55:14.490Z,43.68
2019-01-25T09:57:42.888Z,43.45
2019-01-25T10:00:23.011Z,43.64
2019-01-25T10:02:51.400Z,43.52
2019-01-25T10:05:19.778Z,43.66
2019-01-25T10:07:48.249Z,43.66
2019-01-25T10:10:16.819Z,43.83
2019-01-25T10:12:45.219Z,43.89
2019-01-25T10:15:19.837Z,44.03
2019-01-25T10:17:48.231Z,43.83
2019-01-25T10:20:18.271Z,43.83
2019-01-25T10:22:46.665Z,44.03
2019-01-25T10:25:15.047Z,43.88
2019-01-25T10:27:43.516Z,43.98
2019-01-25T10:30:15.259Z,43.74
2019-01-25T10:32:43.653Z,43.72
2019-01-25T10:35:12.574Z,44.04
2019-01-25T10:37:40.964Z,43.71
2019-01-25T10:40:12.566Z,43.54
2019-01-25T10:42:45.532Z,43.67
2019-01-25T10:45:16.896Z,42.97
2019-01-25T10:47:45.465Z,42.75
2019-01-25T10:50:14.093Z,43.12
2019-01-25T10:52:42.560Z,42.94
2019-01-25T10:55:12.088Z,43.08
2019-01-25T10:57:40.656Z,43.11
2019-01-25T11:00:17.654Z,43.24
2019-01-25T11:02:46.037Z,43.45
2019-01-25T11:05:17.277Z,43.65
2019-01-25T11:07:45.720Z,44.24
2019-01-25T11:10:14.343Z,44.21
2019-01-25T11:12:43.180Z,44.19
2019-01-25T11:15:20.508Z,44.16
2019-01-25T11:17:49.236Z,44.16
2019-01-25T11:20:22.483Z,44.22
2019-01-25T11:22:50.944Z,44.03
2019-01-25T11:25:25.213Z,43.92
2019-01-25T11:27:53.615Z,43.97
2019-01-25T11:30:22.139Z,44.66
2019-01-25T11:32:50.534Z,44.72
2019-01-25T11:35:18.913Z,44.85
2019-01-25T11:37:47.319Z,44.83
2019-01-25T11:40:21.251Z,44.67
2019-01-25T11:42:49.641Z,43.98
2019-01-25T11:45:18.191Z,44.00
2019-01-25T11:47:46.719Z,43.97
2019-01-25T11:50:17.921Z,43.92
2019-01-25T11:52:46.359Z,43.75
2019-01-25T11:55:16.786Z,43.58
2019-01-25T11:57:45.451Z,43.62
2019-01-25T12:00:19.564Z,43.65
2019-01-25T12:02:48.032Z,43.46
2019-01-25T12:05:19.633Z,43.61
2019-01-25T12:07:48.021Z,43.59
2019-01-25T12:10:19.502Z,43.56
2019-01-25T12:12:47.896Z,43.68
2019-01-25T12:15:17.224Z,43.73
2019-01-25T12:17:45.787Z,43.61
2019-01-25T12:20:17.518Z,43.67
2019-01-25T12:22:46.020Z,43.63
2019-01-25T12:25:14.402Z,43.30
2019-01-25T12:27:42.805Z,43.72
2019-01-25T12:30:14.234Z,43.73
2019-01-25T12:32:42.632Z,43.72
2019-01-25T12:35:12.758Z,43.80
2019-01-25T12:37:41.155Z,44.12
2019-01-25T12:40:17.639Z,44.42
2019-01-25T12:42:46.033Z,44.74
2019-01-25T12:45:20.224Z,44.85
2019-01-25T12:47:48.610Z,44.99
2019-01-25T12:50:22.848Z,45.16
2019-01-25T12:52:51.248Z,44.91
2019-01-25T12:55:19.772Z,44.94
2019-01-25T12:57:48.172Z,45.08
2019-01-25T13:00:20.739Z,45.19
2019-01-25T13:02:49.136Z,44.99
2019-01-25T13:05:19.363Z,45.03
2019-01-25T13:07:47.846Z,44.77
2019-01-25T13:10:22.267Z,44.52
2019-01-25T13:12:50.679Z,44.50
2019-01-25T13:15:19.082Z,44.05
2019-01-25T13:17:47.486Z,44.19
2019-01-25T13:20:21.189Z,44.38
2019-01-25T13:22:49.578Z,44.16
2019-01-25T13:25:17.967Z,44.23
2019-01-25T13:27:46.536Z,44.01
2019-01-25T13:30:19.392Z,43.88
2019-01-25T13:32:47.947Z,43.73
2019-01-25T13:35:16.470Z,43.78
2019-01-25T13:37:44.866Z,43.51
2019-01-25T13:40:15.807Z,43.51
2019-01-25T13:42:45.231Z,43.59
2019-01-25T13:45:18.281Z,43.66
2019-01-25T13:47:46.764Z,43.30
2019-01-25T13:50:17.934Z,43.53
2019-01-25T13:52:46.502Z,43.35
2019-01-25T13:55:16.433Z,43.36
2019-01-25T13:57:45.077Z,43.37
2019-01-25T14:00:23.021Z,43.26
2019-01-25T14:02:51.532Z,43.23
2019-01-25T14:05:19.925Z,43.30
2019-01-25T14:07:48.380Z,43.27
2019-01-25T14:10:22.245Z,43.13
2019-01-25T14:12:51.719Z,42.90
2019-01-25T14:15:20.099Z,42.92
2019-01-25T14:17:48.483Z,43.05
2019-01-25T14:20:25.798Z,43.11
2019-01-25T14:22:54.196Z,43.13
2019-01-25T14:25:22.654Z,43.12
2019-01-25T14:27:51.033Z,43.19
2019-01-25T14:30:28.133Z,43.24
2019-01-25T14:32:56.523Z,42.92
2019-01-25T14:35:24.908Z,43.12
2019-01-25T14:37:53.285Z,43.02
2019-01-25T14:40:22.670Z,42.92
2019-01-25T14:42:51.049Z,42.67
2019-01-25T14:45:27.972Z,42.85
2019-01-25T14:47:56.426Z,42.80
2019-01-25T14:50:30.774Z,42.79
2019-01-25T14:53:01.319Z,42.33
2019-01-25T14:55:29.784Z,42.71
2019-01-25T14:57:58.387Z,42.69
2019-01-25T15:00:26.777Z,42.68
2019-01-25T15:02:56.126Z,42.77
2019-01-25T15:05:26.509Z,42.52
2019-01-25T15:07:54.916Z,42.62
2019-01-25T15:10:24.842Z,42.41
2019-01-25T15:12:56.083Z,42.64
2019-01-25T15:15:26.676Z,42.52
2019-01-25T15:17:55.200Z,42.50
2019-01-25T15:20:26.531Z,42.36
2019-01-25T15:22:54.917Z,42.51
2019-01-25T15:25:23.380Z,42.41
2019-01-25T15:27:51.761Z,42.42
2019-01-25T15:30:28.049Z,42.38
2019-01-25T15:32:56.572Z,42.33
2019-01-25T15:35:25.507Z,42.42
2019-01-25T15:37:53.882Z,42.42
2019-01-25T15:40:22.930Z,42.45
2019-01-25T15:42:52.364Z,42.38
2019-01-25T15:45:22.200Z,42.39
2019-01-25T15:47:50.819Z,42.44
2019-01-25T15:50:27.303Z,42.37
2019-01-25T15:52:55.690Z,42.36
2019-01-25T15:55:25.643Z,42.39
2019-01-25T15:57:54.024Z,42.32
2019-01-25T16:00:27.141Z,42.32
2019-01-25T16:02:55.588Z,42.24
2019-01-25T16:05:24.723Z,42.33
2019-01-25T16:07:53.372Z,42.22
2019-01-25T16:10:22.710Z,42.44
2019-01-25T16:12:51.426Z,42.19
2019-01-25T16:15:24.922Z,41.99
2019-01-25T16:17:53.436Z,42.12
2019-01-25T16:20:21.905Z,42.07
2019-01-25T16:22:52.128Z,41.81
2019-01-25T16:25:23.727Z,42.01
2019-01-25T16:27:52.110Z,42.12
2019-01-25T16:30:23.383Z,42.05
2019-01-25T16:32:51.794Z,42.07
2019-01-25T16:35:20.192Z,41.69
2019-01-25T16:37:48.568Z,42.13
2019-01-25T16:40:19.098Z,42.37
2019-01-25T16:42:47.475Z,42.52
2019-01-25T16:45:18.604Z,42.59
2019-01-25T16:47:46.979Z,42.66
2019-01-25T16:50:23.398Z,42.29
2019-01-25T16:52:45.955Z,42.91
2019-01-25T16:55:15.884Z,42.82
2019-01-25T16:57:44.264Z,42.91
2019-01-25T17:00:24.254Z,43.09
2019-01-25T17:02:52.634Z,42.95
2019-01-25T17:05:21.391Z,42.97
2019-01-25T17:07:49.768Z,43.36
2019-01-25T17:10:18.293Z,43.46
2019-01-25T17:12:46.674Z,43.77
2019-01-25T17:15:16.609Z,43.12
2019-01-25T17:17:45.155Z,43.21
2019-01-25T17:20:21.462Z,43.25
2019-01-25T17:22:49.251Z,43.16
2019-01-25T17:25:17.713Z,42.96
2019-01-25T17:27:46.340Z,43.01
2019-01-25T17:30:26.515Z,42.64
2019-01-25T17:32:56.437Z,42.65
2019-01-25T17:35:24.897Z,42.57
2019-01-25T17:37:53.406Z,42.67
2019-01-25T17:40:37.243Z,42.84
2019-01-25T17:43:05.745Z,41.98
2019-01-25T17:45:34.079Z,41.98
2019-01-25T17:48:02.450Z,42.57
2019-01-25T17:50:30.841Z,42.83
2019-01-25T17:52:59.303Z,42.56
2019-01-25T17:55:27.698Z,42.99
2019-01-25T17:57:56.083Z,43.37
2019-01-25T18:00:31.782Z,43.39
2019-01-25T18:03:00.380Z,43.48
2019-01-25T18:05:28.780Z,44.00
2019-01-25T18:07:57.163Z,43.84
2019-01-25T18:10:26.205Z,43.33
2019-01-25T18:12:54.588Z,42.90
2019-01-25T18:15:22.995Z,42.40
2019-01-25T18:17:51.380Z,41.75
2019-01-25T18:20:21.918Z,41.26
2019-01-25T18:22:50.370Z,40.97
2019-01-25T18:25:34.015Z,40.45
2019-01-25T18:28:05.383Z,40.31
2019-01-25T18:30:39.707Z,39.72
2019-01-25T18:33:08.165Z,38.82
2019-01-25T18:35:36.559Z,39.27
2019-01-25T18:38:05.514Z,39.54
2019-01-25T18:40:33.892Z,39.94
2019-01-25T18:43:02.278Z,40.06
2019-01-25T18:45:30.668Z,40.12
2019-01-25T18:47:59.096Z,40.25
2019-01-25T18:50:27.501Z,40.35
2019-01-25T18:52:55.894Z,40.39
2019-01-25T18:55:25.727Z,40.31
2019-01-25T18:57:54.113Z,40.43
2019-01-25T19:00:22.838Z,40.33
2019-01-25T19:02:51.307Z,40.25
2019-01-25T19:05:19.752Z,40.10
2019-01-25T19:07:48.149Z,40.16
2019-01-25T19:10:19.341Z,40.24
2019-01-25T19:12:47.730Z,40.34
2019-01-25T19:15:32.681Z,40.44
2019-01-25T19:18:01.064Z,40.44
2019-01-25T19:20:29.611Z,40.45
2019-01-25T19:22:58.011Z,40.20
2019-01-25T19:25:26.395Z,40.08
2019-01-25T19:27:54.796Z,40.42
2019-01-25T19:30:31.676Z,40.44
2019-01-25T19:33:00.509Z,40.04
2019-01-25T19:35:29.062Z,40.18
2019-01-25T19:37:57.800Z,40.01
2019-01-25T19:40:31.895Z,40.17
2019-01-25T19:43:00.545Z,40.08
2019-01-25T19:45:28.920Z,40.02
2019-01-25T19:47:57.581Z,40.10
2019-01-25T19:50:27.464Z,40.21
2019-01-25T19:52:55.854Z,39.94
2019-01-25T19:55:26.671Z,40.13
2019-01-25T19:57:55.496Z,39.60
2019-01-25T20:00:32.887Z,39.66
2019-01-25T20:03:01.338Z,39.91
2019-01-25T20:05:33.119Z,39.99
2019-01-25T20:08:01.590Z,40.15
2019-01-25T20:10:30.032Z,39.77
2019-01-25T20:12:58.487Z,39.78
2019-01-25T20:15:27.917Z,39.88
2019-01-25T20:17:56.369Z,40.24
2019-01-25T20:20:27.724Z,40.07
2019-01-25T20:22:56.184Z,40.26
2019-01-25T20:25:24.574Z,40.18
2019-01-25T20:27:53.125Z,40.33
2019-01-25T20:30:29.657Z,40.39
2019-01-25T20:32:58.437Z,40.27
2019-01-25T20:35:29.348Z,40.55
2019-01-25T20:37:57.738Z,40.46
2019-01-25T20:40:26.109Z,40.57
2019-01-25T20:42:54.506Z,40.94
2019-01-25T20:45:27.326Z,40.19
2019-01-25T20:47:55.707Z,40.12
2019-01-25T20:50:26.521Z,40.47
2019-01-25T20:52:54.908Z,40.08
2019-01-25T20:55:23.627Z,40.65
2019-01-25T20:57:52.086Z,40.04
2019-01-25T21:00:23.143Z,40.54
2019-01-25T21:02:51.591Z,40.46
2019-01-25T21:05:20.315Z,40.59
2019-01-25T21:07:48.711Z,40.52
2019-01-25T21:10:19.801Z,41.03
2019-01-25T21:12:48.427Z,40.96
2019-01-25T21:15:19.443Z,41.23
2019-01-25T21:17:47.892Z,40.99
2019-01-25T21:20:18.990Z,40.17
2019-01-25T21:22:47.919Z,39.66
2019-01-25T21:25:16.475Z,39.68
2019-01-25T21:27:45.062Z,40.32
2019-01-25T21:30:22.360Z,39.88
2019-01-25T21:32:50.910Z,40.27
2019-01-25T21:35:19.360Z,40.33
2019-01-25T21:37:47.830Z,40.33
2019-01-25T21:40:18.748Z,40.53
2019-01-25T21:42:47.212Z,40.54
2019-01-25T21:45:18.472Z,40.72
2019-01-25T21:47:46.936Z,40.76
2019-01-25T21:50:21.228Z,40.78
2019-01-25T21:52:49.851Z,40.94
2019-01-25T21:55:18.298Z,41.05
2019-01-25T21:57:47.689Z,41.17
2019-01-25T22:00:21.492Z,41.08
2019-01-25T22:02:49.892Z,41.01
2019-01-25T22:05:18.502Z,41.62
2019-01-25T22:07:46.908Z,41.14
2019-01-25T22:10:26.712Z,41.09
2019-01-25T22:12:55.259Z,40.88
2019-01-25T22:15:23.816Z,41.00
2019-01-25T22:17:52.204Z,41.09
2019-01-25T22:20:26.211Z,41.37
2019-01-25T22:22:54.624Z,41.36
2019-01-25T22:25:23.072Z,41.39
2019-01-25T22:27:52.604Z,41.27
2019-01-25T22:30:25.984Z,41.17
2019-01-25T22:32:54.984Z,41.34
2019-01-25T22:35:23.494Z,41.47
2019-01-25T22:37:53.173Z,41.56
2019-01-25T22:40:26.764Z,41.60
2019-01-25T22:42:55.165Z,41.64
2019-01-25T22:45:26.321Z,41.36
2019-01-25T22:47:55.478Z,41.00
2019-01-25T22:50:26.461Z,40.89
2019-01-25T22:52:54.923Z,40.90
2019-01-25T22:55:24.145Z,41.05
2019-01-25T22:57:52.587Z,40.95
2019-01-25T23:00:46.406Z,40.99
2019-01-25T23:03:17.427Z,40.89
2019-01-25T23:08:34.851Z,40.90
2019-01-25T23:11:03.266Z,40.84
2019-01-25T23:13:31.721Z,40.85
2019-01-25T23:16:06.297Z,40.92
2019-01-25T23:18:30.213Z,40.99
2019-01-25T23:20:58.593Z,40.95
2019-01-25T23:23:26.979Z,40.82
2019-01-25T23:25:55.517Z,40.98
2019-01-25T23:28:23.989Z,41.02
2019-01-25T23:30:52.370Z,41.00
2019-01-25T23:33:20.758Z,40.98
2019-01-25T23:35:49.182Z,41.06
2019-01-25T23:38:17.518Z,41.08
2019-01-25T23:40:45.913Z,41.05
2019-01-25T23:43:14.892Z,41.08
2019-01-25T23:45:43.290Z,41.08
2019-01-25T23:48:11.680Z,41.13
2019-01-25T23:50:40.079Z,41.20
2019-01-25T23:53:08.458Z,41.14
2019-01-25T23:55:36.843Z,41.22
2019-01-25T23:58:05.293Z,41.19
